Terminal Aerodrome Forecast
Issued by NWS

Home | Current Version | Previous Version | Text Only | Print | Product List | Glossary On
Versions: 1 2 3 4 5 6 7 8 9 10 11 12 13 14 15 16 17 18 19
000
FTUS41 KRNK 060528
TAFBCB
TAF
KBCB 060528Z 0606/0706 30005KT P6SM OVC015
      TEMPO 0606/0609 5SM -SHRA BR SCT015 OVC035
     FM061100 31008KT 5SM BR OVC008
     FM061400 32011G19KT P6SM OVC024
     FM061900 32012G24KT P6SM BKN050
     FM070000 31006KT P6SM BKN040=

USA.gov is the U.S. government's official web portal to all federal, state and local government web resources and services.